sensor_id;sensor_type;location;lat;lon;timestamp;P1;durP1;ratioP1;P2;durP2;ratioP2
28431;SDS011;15664;51.302;7.744;2023-04-09T00:00:33;28.60;;;9.33;;
28431;SDS011;15664;51.302;7.744;2023-04-09T00:02:58;20.55;;;8.43;;
28431;SDS011;15664;51.302;7.744;2023-04-09T00:05:24;20.57;;;8.03;;
28431;SDS011;15664;51.302;7.744;2023-04-09T00:07:50;21.63;;;8.05;;
28431;SDS011;15664;51.302;7.744;2023-04-09T00:10:15;22.33;;;9.18;;
28431;SDS011;15664;51.302;7.744;2023-04-09T00:12:41;23.10;;;7.47;;
28431;SDS011;15664;51.302;7.744;2023-04-09T00:15:06;22.60;;;8.13;;
28431;SDS011;15664;51.302;7.744;2023-04-09T00:17:32;26.85;;;8.60;;
28431;SDS011;15664;51.302;7.744;2023-04-09T00:19:58;22.27;;;8.37;;
28431;SDS011;15664;51.302;7.744;2023-04-09T00:22:23;24.95;;;8.88;;
28431;SDS011;15664;51.302;7.744;2023-04-09T00:24:49;18.40;;;7.87;;
28431;SDS011;15664;51.302;7.744;2023-04-09T00:27:14;23.03;;;8.30;;
28431;SDS011;15664;51.302;7.744;2023-04-09T00:29:40;26.27;;;9.88;;
28431;SDS011;15664;51.302;7.744;2023-04-09T00:32:06;25.27;;;8.93;;
28431;SDS011;15664;51.302;7.744;2023-04-09T00:34:31;30.07;;;9.50;;
28431;SDS011;15664;51.302;7.744;2023-04-09T00:36:58;23.58;;;8.65;;
28431;SDS011;15664;51.302;7.744;2023-04-09T00:39:23;24.60;;;9.03;;
28431;SDS011;15664;51.302;7.744;2023-04-09T00:41:49;25.38;;;9.02;;
28431;SDS011;15664;51.302;7.744;2023-04-09T00:44:14;25.67;;;8.30;;
28431;SDS011;15664;51.302;7.744;2023-04-09T00:46:40;28.23;;;10.38;;
28431;SDS011;15664;51.302;7.744;2023-04-09T00:49:06;24.87;;;9.03;;
28431;SDS011;15664;51.302;7.744;2023-04-09T00:51:32;18.60;;;7.83;;
28431;SDS011;15664;51.302;7.744;2023-04-09T00:53:57;28.38;;;9.27;;
28431;SDS011;15664;51.302;7.744;2023-04-09T00:56:23;23.30;;;9.35;;
28431;SDS011;15664;51.302;7.744;2023-04-09T00:58:51;22.58;;;7.50;;
28431;SDS011;15664;51.302;7.744;2023-04-09T01:01:17;22.33;;;8.87;;
28431;SDS011;15664;51.302;7.744;2023-04-09T01:03:43;20.88;;;9.55;;
28431;SDS011;15664;51.302;7.744;2023-04-09T01:06:11;27.50;;;9.33;;
28431;SDS011;15664;51.302;7.744;2023-04-09T01:08:50;21.15;;;8.60;;
28431;SDS011;15664;51.302;7.744;2023-04-09T01:11:31;26.42;;;8.77;;
28431;SDS011;15664;51.302;7.744;2023-04-09T01:16:54;25.63;;;9.77;;
28431;SDS011;15664;51.302;7.744;2023-04-09T01:19:44;30.70;;;9.52;;
28431;SDS011;15664;51.302;7.744;2023-04-09T01:27:45;25.20;;;9.85;;
28431;SDS011;15664;51.302;7.744;2023-04-09T01:30:18;24.20;;;9.23;;
28431;SDS011;15664;51.302;7.744;2023-04-09T01:32:46;22.33;;;8.60;;
28431;SDS011;15664;51.302;7.744;2023-04-09T01:35:12;26.02;;;8.82;;
28431;SDS011;15664;51.302;7.744;2023-04-09T01:37:39;23.85;;;9.18;;
28431;SDS011;15664;51.302;7.744;2023-04-09T01:40:06;24.70;;;9.45;;
28431;SDS011;15664;51.302;7.744;2023-04-09T01:42:32;24.70;;;9.10;;
28431;SDS011;15664;51.302;7.744;2023-04-09T01:45:00;33.28;;;11.55;;
28431;SDS011;15664;51.302;7.744;2023-04-09T01:47:26;29.58;;;11.13;;
28431;SDS011;15664;51.302;7.744;2023-04-09T01:49:52;25.85;;;10.63;;
28431;SDS011;15664;51.302;7.744;2023-04-09T01:52:18;19.17;;;8.52;;
28431;SDS011;15664;51.302;7.744;2023-04-09T01:54:44;25.27;;;10.33;;
28431;SDS011;15664;51.302;7.744;2023-04-09T01:57:10;26.83;;;9.63;;
28431;SDS011;15664;51.302;7.744;2023-04-09T01:59:35;27.40;;;9.70;;
28431;SDS011;15664;51.302;7.744;2023-04-09T02:02:09;23.67;;;9.50;;
28431;SDS011;15664;51.302;7.744;2023-04-09T02:04:42;23.67;;;9.48;;
28431;SDS011;15664;51.302;7.744;2023-04-09T02:07:30;25.92;;;9.55;;
28431;SDS011;15664;51.302;7.744;2023-04-09T02:10:02;32.53;;;10.68;;
28431;SDS011;15664;51.302;7.744;2023-04-09T02:12:31;24.27;;;9.55;;
28431;SDS011;15664;51.302;7.744;2023-04-09T02:15:00;30.30;;;10.47;;
28431;SDS011;15664;51.302;7.744;2023-04-09T02:17:27;27.27;;;11.10;;
28431;SDS011;15664;51.302;7.744;2023-04-09T02:19:52;27.48;;;10.88;;
28431;SDS011;15664;51.302;7.744;2023-04-09T02:22:18;26.83;;;9.87;;
28431;SDS011;15664;51.302;7.744;2023-04-09T02:24:44;24.08;;;9.73;;
28431;SDS011;15664;51.302;7.744;2023-04-09T02:27:10;26.33;;;10.40;;
28431;SDS011;15664;51.302;7.744;2023-04-09T02:29:39;21.00;;;9.27;;
28431;SDS011;15664;51.302;7.744;2023-04-09T02:32:05;28.73;;;11.00;;
28431;SDS011;15664;51.302;7.744;2023-04-09T02:34:30;21.83;;;8.97;;
28431;SDS011;15664;51.302;7.744;2023-04-09T02:36:57;27.30;;;9.70;;
28431;SDS011;15664;51.302;7.744;2023-04-09T02:39:22;25.17;;;8.83;;
28431;SDS011;15664;51.302;7.744;2023-04-09T02:41:48;27.50;;;10.00;;
28431;SDS011;15664;51.302;7.744;2023-04-09T02:44:13;25.47;;;9.13;;
28431;SDS011;15664;51.302;7.744;2023-04-09T02:46:39;20.43;;;8.53;;
28431;SDS011;15664;51.302;7.744;2023-04-09T02:49:05;25.50;;;9.57;;
28431;SDS011;15664;51.302;7.744;2023-04-09T02:51:32;20.50;;;9.17;;
28431;SDS011;15664;51.302;7.744;2023-04-09T02:53:59;23.52;;;8.48;;
28431;SDS011;15664;51.302;7.744;2023-04-09T02:56:24;25.53;;;9.70;;
28431;SDS011;15664;51.302;7.744;2023-04-09T02:58:50;20.35;;;9.25;;
28431;SDS011;15664;51.302;7.744;2023-04-09T03:01:18;22.97;;;10.23;;
28431;SDS011;15664;51.302;7.744;2023-04-09T03:03:45;29.17;;;10.85;;
28431;SDS011;15664;51.302;7.744;2023-04-09T03:06:11;22.55;;;9.63;;
28431;SDS011;15664;51.302;7.744;2023-04-09T03:08:37;20.83;;;8.18;;
28431;SDS011;15664;51.302;7.744;2023-04-09T03:11:02;38.53;;;25.83;;
28431;SDS011;15664;51.302;7.744;2023-04-09T03:13:28;50.37;;;32.83;;
28431;SDS011;15664;51.302;7.744;2023-04-09T03:15:54;28.58;;;18.17;;
28431;SDS011;15664;51.302;7.744;2023-04-09T03:18:19;28.30;;;15.93;;
28431;SDS011;15664;51.302;7.744;2023-04-09T03:20:45;29.38;;;19.73;;
28431;SDS011;15664;51.302;7.744;2023-04-09T03:23:12;25.20;;;17.63;;
28431;SDS011;15664;51.302;7.744;2023-04-09T03:25:42;36.60;;;26.40;;
28431;SDS011;15664;51.302;7.744;2023-04-09T03:28:11;43.45;;;26.35;;
28431;SDS011;15664;51.302;7.744;2023-04-09T03:30:41;38.22;;;26.95;;
28431;SDS011;15664;51.302;7.744;2023-04-09T03:33:07;36.55;;;25.73;;
28431;SDS011;15664;51.302;7.744;2023-04-09T03:35:42;41.70;;;28.80;;
28431;SDS011;15664;51.302;7.744;2023-04-09T03:38:08;37.75;;;28.70;;
28431;SDS011;15664;51.302;7.744;2023-04-09T03:40:35;41.33;;;28.52;;
28431;SDS011;15664;51.302;7.744;2023-04-09T03:43:00;37.28;;;27.77;;
28431;SDS011;15664;51.302;7.744;2023-04-09T03:45:27;44.17;;;29.53;;
28431;SDS011;15664;51.302;7.744;2023-04-09T03:48:00;49.15;;;33.97;;
28431;SDS011;15664;51.302;7.744;2023-04-09T03:50:26;71.87;;;43.97;;
28431;SDS011;15664;51.302;7.744;2023-04-09T03:52:54;91.78;;;51.50;;
28431;SDS011;15664;51.302;7.744;2023-04-09T03:55:20;66.50;;;43.53;;
28431;SDS011;15664;51.302;7.744;2023-04-09T03:57:47;55.63;;;37.33;;
28431;SDS011;15664;51.302;7.744;2023-04-09T04:00:16;65.63;;;41.78;;
28431;SDS011;15664;51.302;7.744;2023-04-09T04:03:00;66.07;;;41.37;;
28431;SDS011;15664;51.302;7.744;2023-04-09T04:05:46;56.97;;;39.90;;
28431;SDS011;15664;51.302;7.744;2023-04-09T04:08:13;59.17;;;40.85;;
28431;SDS011;15664;51.302;7.744;2023-04-09T04:10:39;64.03;;;40.30;;
28431;SDS011;15664;51.302;7.744;2023-04-09T04:13:05;70.70;;;44.50;;
28431;SDS011;15664;51.302;7.744;2023-04-09T04:15:41;89.10;;;50.75;;
28431;SDS011;15664;51.302;7.744;2023-04-09T04:18:09;71.88;;;45.13;;
28431;SDS011;15664;51.302;7.744;2023-04-09T04:20:42;72.00;;;44.07;;
28431;SDS011;15664;51.302;7.744;2023-04-09T04:23:11;74.38;;;45.83;;
28431;SDS011;15664;51.302;7.744;2023-04-09T04:25:46;67.43;;;43.83;;
28431;SDS011;15664;51.302;7.744;2023-04-09T04:28:16;84.20;;;46.88;;
28431;SDS011;15664;51.302;7.744;2023-04-09T04:30:41;66.13;;;43.10;;
28431;SDS011;15664;51.302;7.744;2023-04-09T04:33:07;73.18;;;44.97;;
28431;SDS011;15664;51.302;7.744;2023-04-09T04:35:44;88.77;;;51.77;;
28431;SDS011;15664;51.302;7.744;2023-04-09T04:38:26;74.05;;;46.75;;
28431;SDS011;15664;51.302;7.744;2023-04-09T04:40:52;109.63;;;56.80;;
28431;SDS011;15664;51.302;7.744;2023-04-09T04:43:19;82.38;;;50.70;;
28431;SDS011;15664;51.302;7.744;2023-04-09T04:45:45;80.03;;;46.95;;
28431;SDS011;15664;51.302;7.744;2023-04-09T04:48:11;77.67;;;47.43;;
28431;SDS011;15664;51.302;7.744;2023-04-09T04:50:37;81.55;;;49.38;;
28431;SDS011;15664;51.302;7.744;2023-04-09T04:53:06;91.97;;;52.43;;
28431;SDS011;15664;51.302;7.744;2023-04-09T04:55:39;87.95;;;51.30;;
28431;SDS011;15664;51.302;7.744;2023-04-09T04:58:07;84.30;;;51.13;;
28431;SDS011;15664;51.302;7.744;2023-04-09T05:00:41;85.93;;;50.88;;
28431;SDS011;15664;51.302;7.744;2023-04-09T05:03:07;71.93;;;45.77;;
28431;SDS011;15664;51.302;7.744;2023-04-09T05:05:46;73.00;;;46.95;;
28431;SDS011;15664;51.302;7.744;2023-04-09T05:08:12;75.68;;;47.53;;
28431;SDS011;15664;51.302;7.744;2023-04-09T05:10:40;65.50;;;44.00;;
28431;SDS011;15664;51.302;7.744;2023-04-09T05:13:08;69.10;;;42.88;;
28431;SDS011;15664;51.302;7.744;2023-04-09T05:15:38;67.13;;;43.08;;
28431;SDS011;15664;51.302;7.744;2023-04-09T05:18:06;61.90;;;41.58;;
28431;SDS011;15664;51.302;7.744;2023-04-09T05:20:33;59.70;;;40.75;;
28431;SDS011;15664;51.302;7.744;2023-04-09T05:23:05;61.20;;;42.17;;
28431;SDS011;15664;51.302;7.744;2023-04-09T05:25:39;62.03;;;41.65;;
28431;SDS011;15664;51.302;7.744;2023-04-09T05:28:07;61.55;;;42.78;;
28431;SDS011;15664;51.302;7.744;2023-04-09T05:30:36;60.85;;;41.25;;
28431;SDS011;15664;51.302;7.744;2023-04-09T05:33:03;58.60;;;39.92;;
28431;SDS011;15664;51.302;7.744;2023-04-09T05:35:30;60.00;;;40.87;;
28431;SDS011;15664;51.302;7.744;2023-04-09T05:37:56;60.50;;;42.10;;
28431;SDS011;15664;51.302;7.744;2023-04-09T05:40:22;64.95;;;42.78;;
28431;SDS011;15664;51.302;7.744;2023-04-09T05:42:49;72.37;;;45.70;;
28431;SDS011;15664;51.302;7.744;2023-04-09T05:45:22;77.03;;;46.72;;
28431;SDS011;15664;51.302;7.744;2023-04-09T05:47:51;62.83;;;41.35;;
28431;SDS011;15664;51.302;7.744;2023-04-09T05:50:18;58.70;;;41.00;;
28431;SDS011;15664;51.302;7.744;2023-04-09T05:52:45;59.20;;;41.22;;
28431;SDS011;15664;51.302;7.744;2023-04-09T05:55:12;62.17;;;41.53;;
28431;SDS011;15664;51.302;7.744;2023-04-09T05:57:44;65.60;;;42.28;;
28431;SDS011;15664;51.302;7.744;2023-04-09T06:00:10;67.68;;;43.13;;
28431;SDS011;15664;51.302;7.744;2023-04-09T06:02:43;70.22;;;44.42;;
28431;SDS011;15664;51.302;7.744;2023-04-09T06:05:09;67.47;;;45.35;;
28431;SDS011;15664;51.302;7.744;2023-04-09T06:07:35;65.57;;;43.83;;
28431;SDS011;15664;51.302;7.744;2023-04-09T06:10:01;62.42;;;41.03;;
28431;SDS011;15664;51.302;7.744;2023-04-09T06:12:27;28.30;;;17.67;;
28431;SDS011;15664;51.302;7.744;2023-04-09T06:14:52;28.42;;;13.25;;
28431;SDS011;15664;51.302;7.744;2023-04-09T06:17:18;23.47;;;10.53;;
28431;SDS011;15664;51.302;7.744;2023-04-09T06:19:43;25.00;;;8.93;;
28431;SDS011;15664;51.302;7.744;2023-04-09T06:22:08;21.30;;;9.03;;
28431;SDS011;15664;51.302;7.744;2023-04-09T06:24:35;23.10;;;8.63;;
28431;SDS011;15664;51.302;7.744;2023-04-09T06:27:00;25.13;;;9.33;;
28431;SDS011;15664;51.302;7.744;2023-04-09T06:29:26;26.67;;;9.57;;
28431;SDS011;15664;51.302;7.744;2023-04-09T06:31:52;27.00;;;10.30;;
28431;SDS011;15664;51.302;7.744;2023-04-09T06:34:17;25.03;;;9.50;;
28431;SDS011;15664;51.302;7.744;2023-04-09T06:36:43;23.83;;;8.53;;
28431;SDS011;15664;51.302;7.744;2023-04-09T06:39:08;18.00;;;7.97;;
28431;SDS011;15664;51.302;7.744;2023-04-09T06:41:34;22.42;;;7.90;;
28431;SDS011;15664;51.302;7.744;2023-04-09T06:44:07;22.48;;;8.10;;
28431;SDS011;15664;51.302;7.744;2023-04-09T06:46:33;19.10;;;7.60;;
28431;SDS011;15664;51.302;7.744;2023-04-09T06:48:58;22.50;;;9.10;;
28431;SDS011;15664;51.302;7.744;2023-04-09T06:51:24;21.02;;;8.52;;
28431;SDS011;15664;51.302;7.744;2023-04-09T06:53:50;22.93;;;7.83;;
28431;SDS011;15664;51.302;7.744;2023-04-09T06:56:15;23.70;;;9.17;;
28431;SDS011;15664;51.302;7.744;2023-04-09T06:58:41;21.88;;;8.77;;
28431;SDS011;15664;51.302;7.744;2023-04-09T07:01:06;21.93;;;8.50;;
28431;SDS011;15664;51.302;7.744;2023-04-09T07:03:32;27.70;;;10.20;;
28431;SDS011;15664;51.302;7.744;2023-04-09T07:05:57;25.70;;;8.93;;
28431;SDS011;15664;51.302;7.744;2023-04-09T07:08:23;24.60;;;10.05;;
28431;SDS011;15664;51.302;7.744;2023-04-09T07:10:50;33.22;;;11.40;;
28431;SDS011;15664;51.302;7.744;2023-04-09T07:13:15;28.03;;;11.20;;
28431;SDS011;15664;51.302;7.744;2023-04-09T07:15:40;27.33;;;9.17;;
28431;SDS011;15664;51.302;7.744;2023-04-09T07:18:06;23.42;;;10.27;;
28431;SDS011;15664;51.302;7.744;2023-04-09T07:20:32;26.13;;;10.37;;
28431;SDS011;15664;51.302;7.744;2023-04-09T07:22:58;24.40;;;9.40;;
28431;SDS011;15664;51.302;7.744;2023-04-09T07:25:24;23.67;;;10.38;;
28431;SDS011;15664;51.302;7.744;2023-04-09T07:27:50;27.23;;;10.57;;
28431;SDS011;15664;51.302;7.744;2023-04-09T07:30:16;26.60;;;10.02;;
28431;SDS011;15664;51.302;7.744;2023-04-09T07:32:41;25.60;;;8.63;;
28431;SDS011;15664;51.302;7.744;2023-04-09T07:35:07;23.83;;;9.83;;
28431;SDS011;15664;51.302;7.744;2023-04-09T07:37:33;21.48;;;8.52;;
28431;SDS011;15664;51.302;7.744;2023-04-09T07:39:59;22.83;;;9.43;;
28431;SDS011;15664;51.302;7.744;2023-04-09T07:42:27;19.35;;;7.95;;
28431;SDS011;15664;51.302;7.744;2023-04-09T07:44:52;22.67;;;9.27;;
28431;SDS011;15664;51.302;7.744;2023-04-09T07:47:18;21.13;;;8.68;;
28431;SDS011;15664;51.302;7.744;2023-04-09T07:49:45;28.90;;;9.97;;
28431;SDS011;15664;51.302;7.744;2023-04-09T07:52:11;26.95;;;9.77;;
28431;SDS011;15664;51.302;7.744;2023-04-09T07:54:36;21.75;;;10.23;;
28431;SDS011;15664;51.302;7.744;2023-04-09T07:57:02;25.03;;;8.90;;
28431;SDS011;15664;51.302;7.744;2023-04-09T07:59:27;20.80;;;8.37;;
28431;SDS011;15664;51.302;7.744;2023-04-09T08:01:53;23.92;;;8.55;;
28431;SDS011;15664;51.302;7.744;2023-04-09T08:04:19;22.93;;;8.90;;
28431;SDS011;15664;51.302;7.744;2023-04-09T08:06:45;20.65;;;8.02;;
28431;SDS011;15664;51.302;7.744;2023-04-09T08:09:14;23.48;;;9.93;;
28431;SDS011;15664;51.302;7.744;2023-04-09T08:11:43;21.77;;;8.97;;
28431;SDS011;15664;51.302;7.744;2023-04-09T08:14:12;21.50;;;8.80;;
28431;SDS011;15664;51.302;7.744;2023-04-09T08:16:39;25.70;;;10.43;;
28431;SDS011;15664;51.302;7.744;2023-04-09T08:19:06;19.02;;;7.65;;
28431;SDS011;15664;51.302;7.744;2023-04-09T08:21:32;18.10;;;8.07;;
28431;SDS011;15664;51.302;7.744;2023-04-09T08:23:57;18.93;;;8.03;;
28431;SDS011;15664;51.302;7.744;2023-04-09T08:26:29;22.27;;;8.52;;
28431;SDS011;15664;51.302;7.744;2023-04-09T08:28:55;23.83;;;8.93;;
28431;SDS011;15664;51.302;7.744;2023-04-09T08:31:20;21.03;;;8.77;;
28431;SDS011;15664;51.302;7.744;2023-04-09T08:33:49;19.13;;;7.18;;
28431;SDS011;15664;51.302;7.744;2023-04-09T08:36:15;21.37;;;8.53;;
28431;SDS011;15664;51.302;7.744;2023-04-09T08:38:40;23.80;;;9.37;;
28431;SDS011;15664;51.302;7.744;2023-04-09T08:41:06;21.35;;;8.50;;
28431;SDS011;15664;51.302;7.744;2023-04-09T08:43:32;19.77;;;8.02;;
28431;SDS011;15664;51.302;7.744;2023-04-09T08:46:00;18.83;;;8.30;;
28431;SDS011;15664;51.302;7.744;2023-04-09T08:48:27;20.85;;;7.15;;
28431;SDS011;15664;51.302;7.744;2023-04-09T08:50:52;19.95;;;8.52;;
28431;SDS011;15664;51.302;7.744;2023-04-09T08:53:18;19.43;;;8.33;;
28431;SDS011;15664;51.302;7.744;2023-04-09T08:55:47;16.23;;;6.72;;
28431;SDS011;15664;51.302;7.744;2023-04-09T08:58:13;19.57;;;7.73;;
28431;SDS011;15664;51.302;7.744;2023-04-09T09:00:38;17.25;;;7.55;;
28431;SDS011;15664;51.302;7.744;2023-04-09T09:03:08;20.40;;;7.60;;
28431;SDS011;15664;51.302;7.744;2023-04-09T09:08:04;16.10;;;7.10;;
28431;SDS011;15664;51.302;7.744;2023-04-09T09:13:22;17.25;;;7.15;;
28431;SDS011;15664;51.302;7.744;2023-04-09T09:15:50;13.98;;;6.18;;
28431;SDS011;15664;51.302;7.744;2023-04-09T09:18:20;15.30;;;7.30;;
28431;SDS011;15664;51.302;7.744;2023-04-09T09:20:46;13.43;;;6.47;;
28431;SDS011;15664;51.302;7.744;2023-04-09T09:23:12;18.45;;;8.05;;
28431;SDS011;15664;51.302;7.744;2023-04-09T09:25:38;16.30;;;6.63;;
28431;SDS011;15664;51.302;7.744;2023-04-09T09:28:08;14.85;;;6.57;;
28431;SDS011;15664;51.302;7.744;2023-04-09T09:30:36;15.15;;;6.25;;
28431;SDS011;15664;51.302;7.744;2023-04-09T09:33:09;12.83;;;6.50;;
28431;SDS011;15664;51.302;7.744;2023-04-09T09:35:45;15.55;;;7.05;;
28431;SDS011;15664;51.302;7.744;2023-04-09T09:38:13;15.10;;;6.70;;
28431;SDS011;15664;51.302;7.744;2023-04-09T09:40:40;12.70;;;5.53;;
28431;SDS011;15664;51.302;7.744;2023-04-09T09:43:06;16.70;;;6.53;;
28431;SDS011;15664;51.302;7.744;2023-04-09T09:45:32;13.32;;;6.43;;
28431;SDS011;15664;51.302;7.744;2023-04-09T09:47:57;15.83;;;6.20;;
28431;SDS011;15664;51.302;7.744;2023-04-09T09:50:23;15.47;;;6.20;;
28431;SDS011;15664;51.302;7.744;2023-04-09T09:52:49;14.32;;;6.20;;
28431;SDS011;15664;51.302;7.744;2023-04-09T09:55:22;16.67;;;7.88;;
28431;SDS011;15664;51.302;7.744;2023-04-09T09:57:51;16.10;;;6.60;;
28431;SDS011;15664;51.302;7.744;2023-04-09T10:00:17;16.80;;;6.53;;
28431;SDS011;15664;51.302;7.744;2023-04-09T10:02:47;12.25;;;5.95;;
28431;SDS011;15664;51.302;7.744;2023-04-09T10:05:23;12.63;;;5.20;;
28431;SDS011;15664;51.302;7.744;2023-04-09T10:07:53;13.35;;;5.80;;
28431;SDS011;15664;51.302;7.744;2023-04-09T10:10:19;14.30;;;6.03;;
28431;SDS011;15664;51.302;7.744;2023-04-09T10:12:47;13.73;;;6.20;;
28431;SDS011;15664;51.302;7.744;2023-04-09T10:15:13;11.02;;;5.03;;
28431;SDS011;15664;51.302;7.744;2023-04-09T10:17:39;12.60;;;5.90;;
28431;SDS011;15664;51.302;7.744;2023-04-09T10:20:26;12.13;;;5.53;;
28431;SDS011;15664;51.302;7.744;2023-04-09T10:22:53;15.88;;;5.70;;
28431;SDS011;15664;51.302;7.744;2023-04-09T10:25:19;14.38;;;6.63;;
28431;SDS011;15664;51.302;7.744;2023-04-09T10:27:57;12.52;;;5.05;;
28431;SDS011;15664;51.302;7.744;2023-04-09T10:30:33;12.80;;;5.20;;
28431;SDS011;15664;51.302;7.744;2023-04-09T10:33:10;11.77;;;5.80;;
28431;SDS011;15664;51.302;7.744;2023-04-09T10:35:37;13.68;;;5.38;;
28431;SDS011;15664;51.302;7.744;2023-04-09T10:38:02;11.50;;;5.00;;
28431;SDS011;15664;51.302;7.744;2023-04-09T10:40:32;11.68;;;5.30;;
28431;SDS011;15664;51.302;7.744;2023-04-09T10:42:58;13.48;;;5.85;;
28431;SDS011;15664;51.302;7.744;2023-04-09T10:45:23;14.50;;;5.80;;
28431;SDS011;15664;51.302;7.744;2023-04-09T10:47:50;12.82;;;5.50;;
28431;SDS011;15664;51.302;7.744;2023-04-09T10:50:22;13.27;;;5.95;;
28431;SDS011;15664;51.302;7.744;2023-04-09T10:52:53;12.38;;;5.57;;
28431;SDS011;15664;51.302;7.744;2023-04-09T10:58:02;10.87;;;4.37;;
28431;SDS011;15664;51.302;7.744;2023-04-09T11:00:28;12.93;;;5.05;;
28431;SDS011;15664;51.302;7.744;2023-04-09T11:05:32;11.37;;;4.80;;
28431;SDS011;15664;51.302;7.744;2023-04-09T11:08:12;11.60;;;4.80;;
28431;SDS011;15664;51.302;7.744;2023-04-09T11:10:38;11.85;;;5.00;;
28431;SDS011;15664;51.302;7.744;2023-04-09T11:13:06;10.85;;;4.95;;
28431;SDS011;15664;51.302;7.744;2023-04-09T11:15:34;11.73;;;4.95;;
28431;SDS011;15664;51.302;7.744;2023-04-09T11:18:01;12.57;;;5.27;;
28431;SDS011;15664;51.302;7.744;2023-04-09T11:20:27;13.00;;;4.93;;
28431;SDS011;15664;51.302;7.744;2023-04-09T11:22:55;11.70;;;4.85;;
28431;SDS011;15664;51.302;7.744;2023-04-09T11:25:24;11.50;;;4.80;;
28431;SDS011;15664;51.302;7.744;2023-04-09T11:27:51;12.68;;;4.75;;
28431;SDS011;15664;51.302;7.744;2023-04-09T11:30:18;11.88;;;5.07;;
28431;SDS011;15664;51.302;7.744;2023-04-09T11:32:43;12.65;;;5.18;;
28431;SDS011;15664;51.302;7.744;2023-04-09T11:35:13;11.07;;;5.22;;
28431;SDS011;15664;51.302;7.744;2023-04-09T11:37:43;11.50;;;4.88;;
28431;SDS011;15664;51.302;7.744;2023-04-09T11:40:19;13.32;;;5.50;;
28431;SDS011;15664;51.302;7.744;2023-04-09T11:42:47;10.43;;;4.45;;
28431;SDS011;15664;51.302;7.744;2023-04-09T11:45:14;9.60;;;4.53;;
28431;SDS011;15664;51.302;7.744;2023-04-09T11:47:41;11.00;;;5.15;;
28431;SDS011;15664;51.302;7.744;2023-04-09T11:50:08;12.88;;;4.43;;
28431;SDS011;15664;51.302;7.744;2023-04-09T11:52:34;12.02;;;4.85;;
28431;SDS011;15664;51.302;7.744;2023-04-09T11:55:00;10.33;;;5.20;;
28431;SDS011;15664;51.302;7.744;2023-04-09T11:57:38;11.98;;;4.78;;
28431;SDS011;15664;51.302;7.744;2023-04-09T12:00:06;11.70;;;4.97;;
28431;SDS011;15664;51.302;7.744;2023-04-09T12:02:35;12.82;;;5.20;;
28431;SDS011;15664;51.302;7.744;2023-04-09T12:05:02;11.60;;;5.13;;
28431;SDS011;15664;51.302;7.744;2023-04-09T12:07:32;12.77;;;5.03;;
28431;SDS011;15664;51.302;7.744;2023-04-09T12:10:02;10.60;;;4.68;;
28431;SDS011;15664;51.302;7.744;2023-04-09T12:12:28;11.93;;;4.70;;
28431;SDS011;15664;51.302;7.744;2023-04-09T12:14:54;11.48;;;4.30;;
28431;SDS011;15664;51.302;7.744;2023-04-09T12:17:22;10.70;;;4.70;;
28431;SDS011;15664;51.302;7.744;2023-04-09T12:19:48;11.48;;;4.90;;
28431;SDS011;15664;51.302;7.744;2023-04-09T12:22:13;10.47;;;4.57;;
28431;SDS011;15664;51.302;7.744;2023-04-09T12:24:39;11.63;;;4.80;;
28431;SDS011;15664;51.302;7.744;2023-04-09T12:27:04;9.03;;;4.43;;
28431;SDS011;15664;51.302;7.744;2023-04-09T12:29:30;9.47;;;4.10;;
28431;SDS011;15664;51.302;7.744;2023-04-09T12:31:57;11.63;;;4.93;;
28431;SDS011;15664;51.302;7.744;2023-04-09T12:34:22;10.75;;;4.60;;
28431;SDS011;15664;51.302;7.744;2023-04-09T12:36:48;11.73;;;4.57;;
28431;SDS011;15664;51.302;7.744;2023-04-09T12:39:14;10.90;;;4.75;;
28431;SDS011;15664;51.302;7.744;2023-04-09T12:41:39;12.40;;;4.95;;
28431;SDS011;15664;51.302;7.744;2023-04-09T12:44:05;11.07;;;4.17;;
28431;SDS011;15664;51.302;7.744;2023-04-09T12:46:31;10.77;;;4.35;;
28431;SDS011;15664;51.302;7.744;2023-04-09T12:48:56;10.80;;;4.30;;
28431;SDS011;15664;51.302;7.744;2023-04-09T12:51:22;10.00;;;4.65;;
28431;SDS011;15664;51.302;7.744;2023-04-09T12:53:48;10.90;;;5.10;;
28431;SDS011;15664;51.302;7.744;2023-04-09T12:56:13;9.83;;;4.57;;
28431;SDS011;15664;51.302;7.744;2023-04-09T12:58:39;9.95;;;4.50;;
28431;SDS011;15664;51.302;7.744;2023-04-09T13:01:04;12.17;;;5.07;;
28431;SDS011;15664;51.302;7.744;2023-04-09T13:03:30;12.30;;;5.23;;
28431;SDS011;15664;51.302;7.744;2023-04-09T13:05:55;10.68;;;5.15;;
28431;SDS011;15664;51.302;7.744;2023-04-09T13:08:21;12.40;;;5.28;;
28431;SDS011;15664;51.302;7.744;2023-04-09T13:10:47;12.13;;;5.27;;
28431;SDS011;15664;51.302;7.744;2023-04-09T13:13:12;11.63;;;4.93;;
28431;SDS011;15664;51.302;7.744;2023-04-09T13:15:38;10.27;;;4.80;;
28431;SDS011;15664;51.302;7.744;2023-04-09T13:18:04;11.60;;;5.15;;
28431;SDS011;15664;51.302;7.744;2023-04-09T13:20:29;11.90;;;5.13;;
28431;SDS011;15664;51.302;7.744;2023-04-09T13:22:55;10.93;;;4.78;;
28431;SDS011;15664;51.302;7.744;2023-04-09T13:25:21;9.93;;;4.60;;
28431;SDS011;15664;51.302;7.744;2023-04-09T13:27:46;10.83;;;4.77;;
28431;SDS011;15664;51.302;7.744;2023-04-09T13:30:12;11.93;;;4.57;;
28431;SDS011;15664;51.302;7.744;2023-04-09T13:32:38;8.90;;;3.93;;
28431;SDS011;15664;51.302;7.744;2023-04-09T13:35:04;11.30;;;4.95;;
28431;SDS011;15664;51.302;7.744;2023-04-09T13:37:30;10.00;;;4.60;;
28431;SDS011;15664;51.302;7.744;2023-04-09T13:39:55;11.60;;;4.63;;
28431;SDS011;15664;51.302;7.744;2023-04-09T13:42:21;9.87;;;4.17;;
28431;SDS011;15664;51.302;7.744;2023-04-09T13:44:47;10.32;;;4.78;;
28431;SDS011;15664;51.302;7.744;2023-04-09T13:47:13;10.82;;;4.53;;
28431;SDS011;15664;51.302;7.744;2023-04-09T13:49:40;12.55;;;4.68;;
28431;SDS011;15664;51.302;7.744;2023-04-09T13:52:07;11.33;;;4.83;;
28431;SDS011;15664;51.302;7.744;2023-04-09T13:54:33;10.13;;;4.60;;
28431;SDS011;15664;51.302;7.744;2023-04-09T13:56:59;12.07;;;5.32;;
28431;SDS011;15664;51.302;7.744;2023-04-09T13:59:25;10.63;;;4.68;;
28431;SDS011;15664;51.302;7.744;2023-04-09T14:01:51;11.03;;;4.33;;
28431;SDS011;15664;51.302;7.744;2023-04-09T14:04:16;9.57;;;4.27;;
28431;SDS011;15664;51.302;7.744;2023-04-09T14:06:42;10.87;;;4.17;;
28431;SDS011;15664;51.302;7.744;2023-04-09T14:09:08;11.15;;;4.45;;
28431;SDS011;15664;51.302;7.744;2023-04-09T14:11:34;9.10;;;3.50;;
28431;SDS011;15664;51.302;7.744;2023-04-09T14:13:59;8.87;;;3.93;;
28431;SDS011;15664;51.302;7.744;2023-04-09T14:16:25;10.47;;;4.50;;
28431;SDS011;15664;51.302;7.744;2023-04-09T14:18:50;11.97;;;4.90;;
28431;SDS011;15664;51.302;7.744;2023-04-09T14:21:15;11.47;;;4.60;;
28431;SDS011;15664;51.302;7.744;2023-04-09T14:23:42;12.00;;;4.13;;
28431;SDS011;15664;51.302;7.744;2023-04-09T14:26:08;10.90;;;4.28;;
28431;SDS011;15664;51.302;7.744;2023-04-09T14:28:33;15.90;;;7.00;;
28431;SDS011;15664;51.302;7.744;2023-04-09T14:30:59;12.50;;;4.70;;
28431;SDS011;15664;51.302;7.744;2023-04-09T14:33:25;10.60;;;4.53;;
28431;SDS011;15664;51.302;7.744;2023-04-09T14:35:50;10.40;;;4.40;;
28431;SDS011;15664;51.302;7.744;2023-04-09T14:38:16;9.27;;;3.72;;
28431;SDS011;15664;51.302;7.744;2023-04-09T14:40:43;10.52;;;4.18;;
28431;SDS011;15664;51.302;7.744;2023-04-09T14:43:08;12.97;;;5.80;;
28431;SDS011;15664;51.302;7.744;2023-04-09T14:45:33;10.33;;;4.07;;
28431;SDS011;15664;51.302;7.744;2023-04-09T14:48:00;9.98;;;4.28;;
28431;SDS011;15664;51.302;7.744;2023-04-09T14:50:25;10.50;;;4.30;;